This is the latest recevied weather packets stored in our database for station/object TAPIOLA. If no packets are shown the sender has not sent any weather packets the latest 1 day(s).
| Time | Temp. | Humidity | Pressure | Rain* | Wind** | Luminosity | Snow |
|---|---|---|---|---|---|---|---|
| 1778096842 | 5° C | 77% | 1014.3 hPa | 0 mm | - | - | - |
| 1778094442 | 6.11° C | 70% | 1014.2 hPa | 0 mm | - | - | - |
| 1778083641 | 10° C | 40% | 1013.8 hPa | 0 mm | - | - | - |
| 1778082442 | 10° C | 42% | 1013.8 hPa | 0 mm | - | - | - |
| 1778080041 | 10° C | 42% | 1013.8 hPa | 0 mm | - | - | - |
| 1778079048 | 10° C | 41% | 1013.9 hPa | 0 mm | - | - | - |
| 1778072840 | 10.56° C | 37% | 1013.8 hPa | 0 mm | - | - | - |
| 1778071640 | 11.67° C | 39% | 1013.8 hPa | 0 mm | - | - | - |
| 1778070440 | 11.67° C | 39% | 1013.8 hPa | 0 mm | - | - | - |
| 1778069240 | 11.11° C | 42% | 1013.6 hPa | 0 mm | - | - | - |
| 1778068041 | 10° C | 50% | 1013.7 hPa | 0 mm | - | - | - |
| 1778065640 | 10.56° C | 28% | 1013.7 hPa | 0 mm | - | - | - |
| 1778064441 | 12.22° C | 26% | 1013.5 hPa | 0 mm | - | - | - |
| 1778063241 | 10° C | 28% | 1013.5 hPa | 0 mm | - | - | - |
| 1778062041 | 11.11° C | 29% | 1013.4 hPa | 0 mm | - | - | - |
| 1778060841 | 10.56° C | 30% | 1013.3 hPa | 0 mm | - | - | - |
| 1778057241 | 10° C | 31% | 1013 hPa | 0 mm | - | - | - |
| 1778056041 | 9.44° C | 33% | 1013.1 hPa | 0 mm | - | - | - |
| 1778054840 | 8.89° C | 36% | 1013 hPa | 0 mm | - | - | - |
| 1778052441 | 8.33° C | 44% | 1012.7 hPa | 0 mm | - | - | - |
| 1778051240 | 8.33° C | 46% | 1012.6 hPa | 0 mm | - | - | - |
| 1778048840 | 7.22° C | 53% | 1012.5 hPa | 0 mm | - | - | - |
| 1778047640 | 6.67° C | 58% | 1012.3 hPa | 0 mm | - | - | - |
| 1778046440 | 6.11° C | 60% | 1012.2 hPa | 0 mm | - | - | - |
| 1778044040 | 4.44° C | 68% | 1011.7 hPa | 0 mm | - | - | - |
* Rain latest hour (hover to see other rain measurements)
** Current wind speed in m/s (hover to see current wind gust speed)